Seagoville's Hourly Summary for Thursday, July 5, 2018
Hour Temp
(f)
RH
(%)
Solar Rad.
(MJ/m2)
Rainfall
(in)
Wind
(mph)
7/5/2018 12:00 AM 75 79 0 0 0.25
7/5/2018 1:00 AM 74 81 0 0 0.02
7/5/2018 2:00 AM 73 82 0 0 1.26
7/5/2018 3:00 AM 72 85 0 0 0.02
7/5/2018 4:00 AM 72 88 0 0 0.21
7/5/2018 5:00 AM 71 90 0 0 0
7/5/2018 6:00 AM 71 91 0.03 0 0
7/5/2018 7:00 AM 73 83 0.36 0 0.57
7/5/2018 8:00 AM 77 70 0.96 0 1.68
7/5/2018 9:00 AM 82 61 1.75 0 2.32
7/5/2018 10:00 AM 84 53 2.3 0 2.48
7/5/2018 11:00 AM 86 49 2.66 0 2.91
7/5/2018 12:00 PM 89 45 2.92 0 3.56
7/5/2018 1:00 PM 91 41 2.4 0 3.17
7/5/2018 2:00 PM 93 37 2.76 0 2.92
7/5/2018 3:00 PM 95 34 2.31 0 3
7/5/2018 4:00 PM 95 35 1.46 0 2.93
7/5/2018 5:00 PM 95 34 1.26 0 3.03
7/5/2018 6:00 PM 93 39 0.5 0 2
7/5/2018 7:00 PM 86 40 0.09 0 6.69
7/5/2018 8:00 PM 85 59 0.03 0 7.11
7/5/2018 9:00 PM 82 62 0 0 2.25
7/5/2018 10:00 PM 81 67 0 0 3.45
7/5/2018 11:00 PM 82 67 0 0 2.84
Data Summary 82 61 21.79 0.00 2.28